Time;durP1;ratioP1;P1;durP2;ratioP2;P2;SDS_P1;SDS_P2;PMS_P1;PMS_P2;Temp;Humidity;BMP_temperature;BMP_pressure;BME280_temperature;BME280_humidity;BME280_pressure;Samples;Min_cycle;Max_cycle;Signal;HPM_P1;HPM_P2
2020/12/16 00:02:25;;;;;;;25.80;15.73;;;9.40;99.90;;;;;;5052073;28;20059;-59
2020/12/16 00:04:52;;;;;;;26.10;14.38;;;9.40;99.90;;;;;;5051930;28;20032;-60
2020/12/16 00:07:19;;;;;;;24.90;14.63;;;9.40;99.90;;;;;;5034879;28;20109;-60
2020/12/16 00:09:45;;;;;;;28.48;14.40;;;9.40;99.90;;;;;;5033897;28;20393;-59
2020/12/16 00:12:11;;;;;;;27.92;15.32;;;9.40;99.90;;;;;;5052084;28;20024;-60
2020/12/16 00:14:36;;;;;;;25.75;14.50;;;9.30;99.90;;;;;;5052557;28;20032;-59
2020/12/16 00:17:02;;;;;;;27.08;14.60;;;9.30;99.90;;;;;;5038960;28;20112;-59
2020/12/16 00:19:28;;;;;;;24.98;14.55;;;9.40;99.90;;;;;;5056061;28;20094;-58
2020/12/16 00:21:57;;;;;;;31.08;14.68;;;9.50;99.90;;;;;;5037649;28;20315;-59
2020/12/16 00:24:22;;;;;;;27.27;14.73;;;9.50;99.90;;;;;;5038292;28;20024;-59
2020/12/16 00:26:48;;;;;;;30.73;16.65;;;9.40;99.90;;;;;;5055190;28;20112;-59
2020/12/16 00:29:14;;;;;;;25.17;14.13;;;9.40;99.90;;;;;;5055947;28;20036;-62
2020/12/16 00:31:39;;;;;;;27.30;16.00;;;9.40;99.90;;;;;;5037331;28;20051;-60
2020/12/16 00:34:08;;;;;;;27.15;15.68;;;9.50;99.90;;;;;;5055725;28;20035;-59
2020/12/16 00:36:38;;;;;;;26.48;13.88;;;9.40;99.90;;;;;;5056207;28;20056;-60
2020/12/16 00:39:05;;;;;;;30.67;15.77;;;9.40;99.90;;;;;;5055592;28;20077;-60
2020/12/16 00:41:31;;;;;;;26.15;14.68;;;9.40;99.90;;;;;;5055620;28;20462;-64
2020/12/16 00:43:57;;;;;;;27.25;14.70;;;9.40;99.90;;;;;;5054773;28;20063;-59
2020/12/16 00:46:23;;;;;;;25.17;15.25;;;9.40;99.90;;;;;;5055200;28;20056;-60
2020/12/16 00:48:50;;;;;;;26.65;15.30;;;9.40;99.90;;;;;;5055248;28;20051;-59
2020/12/16 00:51:16;;;;;;;34.30;16.40;;;9.50;99.90;;;;;;5055394;28;20024;-58
2020/12/16 00:53:42;;;;;;;29.70;16.10;;;9.50;99.90;;;;;;5055119;28;20029;-60
2020/12/16 00:56:07;;;;;;;26.02;15.40;;;9.50;99.90;;;;;;5037800;28;20373;-60
2020/12/16 00:58:33;;;;;;;30.48;16.02;;;9.50;99.90;;;;;;5037504;28;20158;-58
2020/12/16 01:00:59;;;;;;;27.88;16.92;;;9.50;99.90;;;;;;5054339;28;20485;-60
2020/12/16 01:03:24;;;;;;;26.63;15.05;;;9.50;99.90;;;;;;5055123;28;20104;-60
2020/12/16 01:05:50;;;;;;;23.00;14.68;;;9.50;99.90;;;;;;5036938;28;20025;-59
2020/12/16 01:08:16;;;;;;;28.77;16.20;;;9.50;99.90;;;;;;5055280;28;20032;-60
2020/12/16 01:10:42;;;;;;;27.92;15.30;;;9.40;99.90;;;;;;5054892;28;20025;-59
2020/12/16 01:13:08;;;;;;;26.75;15.18;;;9.40;99.90;;;;;;5055977;28;20029;-60
2020/12/16 01:15:33;;;;;;;29.02;16.48;;;9.40;99.90;;;;;;5056038;28;20036;-59
2020/12/16 01:17:59;;;;;;;36.67;16.42;;;9.40;99.90;;;;;;5054567;28;20029;-59
2020/12/16 01:20:25;;;;;;;32.90;17.17;;;9.40;99.90;;;;;;5055607;28;20036;-68
2020/12/16 01:22:50;;;;;;;26.90;16.95;;;9.40;99.90;;;;;;5055516;28;20143;-69
2020/12/16 01:25:18;;;;;;;32.28;16.58;;;9.30;99.90;;;;;;5056130;28;20458;-65
2020/12/16 01:27:44;;;;;;;35.90;19.20;;;9.30;99.90;;;;;;5037184;28;20576;-65
2020/12/16 01:30:10;;;;;;;40.38;19.15;;;9.20;99.90;;;;;;5055902;28;20059;-60
2020/12/16 01:32:38;;;;;;;34.50;18.92;;;9.30;99.90;;;;;;5055720;28;20033;-60
2020/12/16 01:35:05;;;;;;;36.33;18.88;;;9.20;99.90;;;;;;5055700;28;20386;-66
2020/12/16 01:37:31;;;;;;;35.95;20.52;;;9.20;99.90;;;;;;5055279;28;20036;-60
2020/12/16 01:39:56;;;;;;;30.80;17.58;;;9.20;99.90;;;;;;5036770;28;20119;-58
2020/12/16 01:42:22;;;;;;;35.47;17.92;;;9.20;99.90;;;;;;5037318;28;20021;-60
2020/12/16 01:44:48;;;;;;;36.15;19.20;;;9.20;99.90;;;;;;5054130;28;20397;-60
2020/12/16 01:47:13;;;;;;;38.85;19.20;;;9.20;99.90;;;;;;5055039;28;20037;-59
2020/12/16 01:49:39;;;;;;;41.10;20.40;;;9.20;99.90;;;;;;5036638;28;20056;-66
2020/12/16 01:52:06;;;;;;;42.95;21.33;;;9.20;99.90;;;;;;5036688;28;20060;-59
2020/12/16 01:54:34;;;;;;;34.35;19.95;;;9.30;99.90;;;;;;5054678;28;20432;-59
2020/12/16 01:57:04;;;;;;;34.92;19.65;;;9.20;99.90;;;;;;5036175;28;20032;-59
2020/12/16 01:59:35;;;;;;;33.72;19.95;;;9.20;99.90;;;;;;5036932;28;20427;-59
2020/12/16 02:02:03;;;;;;;33.30;19.13;;;9.20;99.90;;;;;;5053825;28;20489;-62
2020/12/16 02:04:34;;;;;;;35.47;20.08;;;9.10;99.90;;;;;;5036707;28;20320;-59
2020/12/16 02:07:05;;;;;;;33.72;18.92;;;9.20;99.90;;;;;;5054175;28;20412;-58
2020/12/16 02:09:38;;;;;;;32.83;18.38;;;9.10;99.90;;;;;;5036714;28;20091;-60
2020/12/16 02:12:08;;;;;;;38.97;19.08;;;9.10;99.90;;;;;;5053766;28;20128;-60
2020/12/16 02:14:34;;;;;;;34.05;18.83;;;9.10;99.90;;;;;;5054288;28;20048;-59
2020/12/16 02:17:00;;;;;;;32.88;18.20;;;9.10;99.90;;;;;;5035591;28;20067;-59
2020/12/16 02:19:32;;;;;;;34.15;18.70;;;9.10;99.90;;;;;;5054200;28;20037;-60
2020/12/16 02:21:58;;;;;;;32.67;18.00;;;9.20;99.90;;;;;;5035809;28;20120;-59
2020/12/16 02:24:27;;;;;;;34.65;17.90;;;9.10;99.90;;;;;;5036096;28;20386;-58
2020/12/16 02:26:52;;;;;;;30.10;16.88;;;9.00;99.90;;;;;;5053068;28;20102;-63
2020/12/16 02:29:19;;;;;;;29.63;16.30;;;9.10;99.90;;;;;;5053712;28;20079;-59
2020/12/16 02:31:46;;;;;;;48.70;18.17;;;9.00;99.90;;;;;;5035096;28;20032;-60
2020/12/16 02:34:12;;;;;;;41.13;18.52;;;9.00;99.90;;;;;;5019462;28;20033;-60
2020/12/16 02:36:37;;;;;;;31.88;17.58;;;8.90;99.90;;;;;;5053956;28;20024;-59
2020/12/16 02:39:03;;;;;;;32.28;17.15;;;8.90;99.90;;;;;;5052435;28;20486;-59
2020/12/16 02:41:29;;;;;;;40.17;16.70;;;8.90;99.90;;;;;;5054016;28;20112;-64
2020/12/16 02:43:55;;;;;;;29.70;17.05;;;9.00;99.90;;;;;;5052967;28;20074;-58
2020/12/16 02:46:20;;;;;;;31.88;17.70;;;9.00;99.90;;;;;;5054158;28;20036;-64
2020/12/16 02:48:46;;;;;;;28.23;14.70;;;9.00;99.90;;;;;;5053335;28;20035;-60
2020/12/16 02:51:12;;;;;;;24.30;14.55;;;8.90;99.90;;;;;;5036058;28;20044;-60
2020/12/16 02:53:37;;;;;;;28.27;16.42;;;8.90;99.90;;;;;;5053513;28;20025;-58
2020/12/16 02:56:03;;;;;;;27.30;15.25;;;8.90;99.90;;;;;;5052915;28;20078;-61
2020/12/16 02:58:29;;;;;;;33.40;16.83;;;8.80;99.90;;;;;;5053414;28;20048;-60
2020/12/16 03:00:54;;;;;;;27.92;16.13;;;8.80;99.90;;;;;;5034464;28;20075;-59
2020/12/16 03:03:20;;;;;;;28.70;16.48;;;8.80;99.90;;;;;;5053461;28;20450;-59
2020/12/16 03:05:46;;;;;;;30.38;15.80;;;8.90;99.90;;;;;;5052662;28;20457;-59
2020/12/16 03:08:11;;;;;;;33.60;15.77;;;8.80;99.90;;;;;;5053214;28;20033;-61
2020/12/16 03:10:38;;;;;;;28.73;15.10;;;8.80;99.90;;;;;;5053071;28;20024;-59
2020/12/16 03:13:04;;;;;;;30.20;16.23;;;8.80;99.90;;;;;;5052423;28;20058;-59
2020/12/16 03:15:30;;;;;;;24.77;14.02;;;8.80;99.90;;;;;;5053283;28;20090;-61
2020/12/16 03:17:56;;;;;;;26.65;15.35;;;8.80;99.90;;;;;;5052556;28;20033;-59
2020/12/16 03:20:22;;;;;;;25.33;14.27;;;8.80;99.90;;;;;;5035581;28;20036;-59
2020/12/16 03:22:47;;;;;;;28.63;16.90;;;8.80;99.90;;;;;;5034795;28;20382;-66
2020/12/16 03:25:13;;;;;;;25.65;14.10;;;8.80;99.90;;;;;;5053366;28;20033;-59
2020/12/16 03:27:39;;;;;;;25.17;15.18;;;8.80;99.90;;;;;;5052912;28;20432;-59
2020/12/16 03:30:05;;;;;;;28.67;15.70;;;8.80;99.90;;;;;;5034336;28;20535;-60
2020/12/16 03:32:31;;;;;;;22.33;14.07;;;8.80;99.90;;;;;;5035028;28;20029;-60
2020/12/16 03:34:56;;;;;;;27.52;14.82;;;8.80;99.90;;;;;;5052427;28;20059;-59
2020/12/16 03:37:22;;;;;;;25.23;13.90;;;8.80;99.90;;;;;;5034754;28;20466;-58
2020/12/16 03:39:48;;;;;;;28.17;13.93;;;8.90;99.90;;;;;;5052199;28;20478;-66
2020/12/16 03:42:13;;;;;;;29.20;14.60;;;8.80;99.90;;;;;;5052860;28;20032;-59
2020/12/16 03:44:39;;;;;;;29.10;15.80;;;8.80;99.90;;;;;;5035409;28;20063;-68
2020/12/16 03:47:05;;;;;;;28.85;14.82;;;8.80;99.90;;;;;;5052589;28;20064;-59
2020/12/16 03:49:30;;;;;;;28.27;14.80;;;8.80;99.90;;;;;;5034959;28;20462;-61
2020/12/16 03:51:56;;;;;;;28.27;15.20;;;8.90;99.90;;;;;;5052216;28;20501;-59
2020/12/16 03:54:25;;;;;;;28.67;15.35;;;8.90;99.90;;;;;;5052369;28;20026;-60
2020/12/16 03:56:51;;;;;;;27.58;14.55;;;8.90;99.90;;;;;;5052144;28;20105;-59
2020/12/16 03:59:17;;;;;;;28.67;14.60;;;9.00;99.90;;;;;;5052258;28;20040;-59
2020/12/16 04:01:43;;;;;;;25.85;13.13;;;9.00;99.90;;;;;;5052102;28;20052;-59
2020/12/16 04:04:10;;;;;;;23.48;13.15;;;9.00;99.90;;;;;;5051756;28;20060;-61
2020/12/16 04:06:36;;;;;;;24.58;13.82;;;9.00;99.90;;;;;;5034971;28;20032;-59
2020/12/16 04:09:03;;;;;;;26.90;14.20;;;9.00;99.90;;;;;;5052635;28;20038;-60
2020/12/16 04:11:29;;;;;;;25.23;13.77;;;9.10;99.90;;;;;;5052474;28;20478;-60
2020/12/16 04:13:54;;;;;;;23.38;13.15;;;9.00;99.90;;;;;;5051933;28;20037;-59
2020/12/16 04:16:22;;;;;;;28.50;14.60;;;9.00;99.90;;;;;;5053279;28;20029;-62
2020/12/16 04:18:50;;;;;;;26.98;13.52;;;9.00;99.90;;;;;;5034881;28;20060;-60
2020/12/16 04:21:17;;;;;;;26.02;13.82;;;9.00;99.90;;;;;;5052532;28;20466;-61
2020/12/16 04:23:42;;;;;;;22.33;13.82;;;9.00;99.90;;;;;;5034370;28;20036;-59
2020/12/16 04:26:08;;;;;;;23.58;13.25;;;9.10;99.90;;;;;;5051971;28;20271;-59
2020/12/16 04:28:35;;;;;;;26.25;13.50;;;9.10;99.90;;;;;;5034548;28;20040;-60
2020/12/16 04:31:03;;;;;;;24.00;13.57;;;9.10;99.90;;;;;;5033756;28;20056;-59
2020/12/16 04:33:28;;;;;;;24.95;14.35;;;9.20;99.90;;;;;;5034462;28;20033;-58
2020/12/16 04:35:54;;;;;;;25.38;14.32;;;9.20;99.90;;;;;;5034171;28;20312;-59
2020/12/16 04:38:19;;;;;;;22.50;13.70;;;9.20;99.90;;;;;;5052151;28;20033;-62
2020/12/16 04:40:45;;;;;;;23.52;14.27;;;9.10;99.90;;;;;;5052408;28;20029;-62
2020/12/16 04:43:21;;;;;;;28.45;14.85;;;9.10;99.90;;;;;;5052241;28;20028;-66
2020/12/16 04:45:48;;;;;;;28.95;15.48;;;9.10;99.90;;;;;;5052806;28;20462;-67
2020/12/16 04:48:15;;;;;;;24.27;13.80;;;9.10;99.90;;;;;;5051851;28;20494;-60
2020/12/16 04:50:43;;;;;;;25.80;14.40;;;9.20;99.90;;;;;;5052994;28;20036;-61
2020/12/16 04:53:11;;;;;;;24.58;14.23;;;9.20;99.90;;;;;;5034247;28;20370;-60
2020/12/16 04:55:37;;;;;;;29.30;16.77;;;9.20;99.90;;;;;;5052677;28;20021;-65
2020/12/16 04:58:04;;;;;;;25.77;14.77;;;9.20;99.90;;;;;;5052649;28;20087;-60
2020/12/16 05:00:31;;;;;;;24.85;14.05;;;9.10;99.90;;;;;;5035879;28;20029;-59
2020/12/16 05:03:02;;;;;;;27.45;15.43;;;9.20;99.90;;;;;;5056301;28;20482;-61
2020/12/16 05:05:29;;;;;;;27.98;15.05;;;9.20;99.90;;;;;;5039053;28;20099;-62
2020/12/16 05:07:55;;;;;;;28.02;15.05;;;9.20;99.90;;;;;;5037039;28;20036;-59
2020/12/16 05:10:38;;;;;;;26.48;13.75;;;9.20;99.90;;;;;;5055258;28;20162;-60
2020/12/16 05:13:12;;;;;;;23.33;14.25;;;9.20;99.90;;;;;;5054916;28;20370;-60
2020/12/16 05:15:39;;;;;;;24.65;13.98;;;9.20;99.90;;;;;;5055461;28;20029;-59
2020/12/16 05:18:05;;;;;;;29.08;15.40;;;9.20;99.90;;;;;;5054389;28;20033;-59
2020/12/16 05:20:31;;;;;;;26.52;14.38;;;9.20;99.90;;;;;;5037388;28;20458;-61
2020/12/16 05:23:01;;;;;;;27.02;14.43;;;9.20;99.90;;;;;;5054617;28;20040;-59
2020/12/16 05:25:27;;;;;;;24.85;14.35;;;9.20;99.90;;;;;;5055149;28;20112;-58
2020/12/16 05:27:53;;;;;;;25.42;14.00;;;9.20;99.90;;;;;;5036841;28;20119;-61
2020/12/16 05:30:19;;;;;;;25.27;14.15;;;9.20;99.90;;;;;;5054762;28;20029;-59
2020/12/16 05:32:45;;;;;;;23.92;12.35;;;9.20;99.90;;;;;;5037296;28;20028;-60
2020/12/16 05:35:32;;;;;;;24.90;13.40;;;9.20;99.90;;;;;;5054512;28;20025;-61
2020/12/16 05:38:04;;;;;;;24.60;13.23;;;9.20;99.90;;;;;;5036292;28;20033;-60
2020/12/16 05:40:31;;;;;;;24.13;14.30;;;9.20;99.90;;;;;;5054768;28;20035;-59
2020/12/16 05:42:57;;;;;;;21.02;12.80;;;9.20;99.90;;;;;;5054072;28;20040;-59
2020/12/16 05:45:26;;;;;;;22.25;12.40;;;9.20;99.90;;;;;;5054769;28;20025;-59
2020/12/16 05:48:04;;;;;;;26.00;13.90;;;9.20;99.90;;;;;;5036784;28;20029;-61
2020/12/16 05:50:45;;;;;;;21.23;12.88;;;9.20;99.90;;;;;;5054908;28;20040;-60
2020/12/16 05:53:13;;;;;;;21.58;14.65;;;9.20;99.90;;;;;;5054704;28;20569;-62
2020/12/16 05:55:39;;;;;;;21.13;13.35;;;9.30;99.90;;;;;;5036950;28;20057;-59
2020/12/16 05:58:12;;;;;;;24.95;13.55;;;9.30;99.90;;;;;;5036407;28;20029;-61
2020/12/16 06:00:58;;;;;;;23.73;14.75;;;9.30;99.90;;;;;;5036687;28;20059;-59
2020/12/16 06:03:29;;;;;;;27.58;14.77;;;9.30;99.90;;;;;;5036491;28;20053;-61
2020/12/16 06:05:57;;;;;;;27.20;14.25;;;9.20;99.90;;;;;;5037211;28;20540;-63
2020/12/16 06:08:25;;;;;;;24.23;14.63;;;9.00;99.90;;;;;;5055902;28;20078;-60
2020/12/16 06:10:52;;;;;;;27.08;15.30;;;8.90;99.90;;;;;;5037693;28;20385;-63
2020/12/16 06:13:19;;;;;;;29.88;16.17;;;8.90;99.90;;;;;;5055410;28;20017;-60
2020/12/16 06:15:55;;;;;;;28.67;15.63;;;8.90;99.90;;;;;;5055712;28;20021;-67
2020/12/16 06:18:27;;;;;;;33.17;16.02;;;9.00;99.90;;;;;;5055704;28;20037;-59
2020/12/16 06:20:53;;;;;;;29.60;15.38;;;9.00;99.90;;;;;;5037846;28;20017;-63
2020/12/16 06:23:43;;;;;;;30.35;15.75;;;8.80;99.90;;;;;;5055200;28;20074;-61
2020/12/16 06:26:13;;;;;;;31.95;18.67;;;8.90;99.90;;;;;;5036117;28;20048;-59
2020/12/16 06:28:40;;;;;;;31.05;17.67;;;8.90;99.90;;;;;;5055031;28;20037;-60
2020/12/16 06:31:31;;;;;;;31.65;17.20;;;8.90;99.90;;;;;;5036320;28;20132;-58
2020/12/16 06:34:00;;;;;;;31.47;18.47;;;9.00;99.90;;;;;;5036246;28;20060;-64
2020/12/16 06:36:28;;;;;;;31.05;18.10;;;9.00;99.90;;;;;;5054329;28;20279;-65
2020/12/16 06:38:53;;;;;;;29.88;17.05;;;8.90;99.90;;;;;;5054203;28;20416;-58
2020/12/16 06:41:31;;;;;;;25.52;17.23;;;8.80;99.90;;;;;;5035674;28;20465;-59
2020/12/16 06:44:07;;;;;;;31.33;16.65;;;8.90;99.90;;;;;;5053874;28;20489;-66
2020/12/16 06:46:33;;;;;;;29.20;16.77;;;9.10;99.90;;;;;;5054314;28;20021;-60
2020/12/16 06:49:01;;;;;;;31.92;17.58;;;9.10;99.90;;;;;;5035660;28;20459;-60
2020/12/16 06:51:27;;;;;;;30.27;16.83;;;9.10;99.90;;;;;;5035753;28;20029;-60
2020/12/16 06:54:08;;;;;;;24.58;15.52;;;9.10;99.90;;;;;;5053803;28;20094;-60
2020/12/16 06:56:34;;;;;;;26.92;15.82;;;9.20;99.90;;;;;;5036306;28;20029;-60
2020/12/16 06:59:00;;;;;;;24.25;16.30;;;9.20;99.90;;;;;;5052585;28;20068;-60
2020/12/16 07:01:26;;;;;;;28.55;16.08;;;9.20;99.90;;;;;;5053083;28;20072;-59
2020/12/16 07:03:52;;;;;;;25.58;15.73;;;9.20;99.90;;;;;;5035930;28;20119;-60
2020/12/16 07:06:30;;;;;;;24.42;15.95;;;9.20;99.90;;;;;;5052743;28;20305;-60
2020/12/16 07:09:18;;;;;;;23.23;15.00;;;9.10;99.90;;;;;;5052928;28;20443;-59
2020/12/16 07:11:46;;;;;;;23.80;15.05;;;9.10;99.90;;;;;;5053315;28;20075;-65
2020/12/16 07:14:14;;;;;;;24.92;15.52;;;9.10;99.90;;;;;;5035107;28;20024;-59
2020/12/16 07:16:41;;;;;;;23.65;15.40;;;9.20;99.90;;;;;;5053055;28;20036;-61
2020/12/16 07:19:06;;;;;;;26.02;16.95;;;9.20;99.90;;;;;;5034755;28;20470;-60
2020/12/16 07:21:32;;;;;;;21.33;15.00;;;9.10;99.90;;;;;;5034641;28;20025;-60
2020/12/16 07:24:13;;;;;;;27.63;16.45;;;9.10;99.90;;;;;;5052499;28;20102;-59
2020/12/16 07:26:56;;;;;;;25.30;14.95;;;9.20;99.90;;;;;;5052930;28;20052;-61
2020/12/16 07:29:24;;;;;;;22.70;15.00;;;9.30;99.90;;;;;;5051827;28;20036;-60
2020/12/16 07:32:05;;;;;;;22.80;14.15;;;9.20;99.90;;;;;;5052395;28;20063;-59
2020/12/16 07:34:32;;;;;;;20.43;13.77;;;9.30;99.90;;;;;;5035630;28;20037;-59
2020/12/16 07:37:04;;;;;;;24.65;14.73;;;9.30;99.90;;;;;;5052271;28;20262;-60
2020/12/16 07:39:31;;;;;;;18.35;12.98;;;9.30;99.90;;;;;;5051961;28;20094;-64
2020/12/16 07:41:58;;;;;;;20.48;13.30;;;9.30;99.90;;;;;;5034374;28;20033;-60
2020/12/16 07:44:25;;;;;;;22.02;14.07;;;9.40;99.90;;;;;;5033330;28;20924;-59
2020/12/16 07:46:51;;;;;;;23.15;14.07;;;9.40;99.90;;;;;;5052519;28;20028;-60
2020/12/16 07:49:18;;;;;;;22.58;14.30;;;9.30;99.90;;;;;;5051430;28;20044;-59
2020/12/16 07:51:44;;;;;;;19.85;13.93;;;9.30;99.90;;;;;;5052473;28;20024;-62
2020/12/16 07:54:10;;;;;;;21.40;14.73;;;9.30;99.90;;;;;;5051112;28;20025;-61
2020/12/16 07:56:36;;;;;;;20.70;13.80;;;9.30;99.90;;;;;;5034263;28;20028;-61
2020/12/16 07:59:12;;;;;;;24.92;14.50;;;9.20;99.90;;;;;;5051531;28;20044;-66
2020/12/16 08:01:38;;;;;;;19.70;13.80;;;9.20;99.90;;;;;;5030291;28;20045;-62
2020/12/16 08:04:04;;;;;;;20.58;13.23;;;9.10;99.90;;;;;;5030789;28;20431;-67
2020/12/16 08:06:30;;;;;;;20.17;13.60;;;9.10;99.90;;;;;;5032131;28;20084;-64
2020/12/16 08:08:56;;;;;;;23.33;13.55;;;9.10;99.90;;;;;;5032721;28;20034;-65
2020/12/16 08:11:25;;;;;;;25.63;15.70;;;9.10;99.90;;;;;;5032134;28;20633;-62
2020/12/16 08:13:51;;;;;;;23.52;14.75;;;9.10;99.90;;;;;;5032721;28;20043;-60
2020/12/16 08:16:17;;;;;;;26.85;15.15;;;9.10;99.90;;;;;;5030939;28;20041;-59
2020/12/16 08:18:48;;;;;;;25.25;15.10;;;9.20;99.90;;;;;;5032479;28;20045;-61
2020/12/16 08:21:21;;;;;;;22.63;14.45;;;9.30;99.90;;;;;;5031288;28;20033;-61
2020/12/16 08:23:48;;;;;;;22.08;12.93;;;9.20;99.90;;;;;;5031812;28;20029;-64
2020/12/16 08:26:18;;;;;;;19.98;14.00;;;9.30;99.90;;;;;;5031140;28;20021;-62
2020/12/16 08:28:45;;;;;;;22.27;11.82;;;10.30;99.90;;;;;;5030531;28;20028;-62
2020/12/16 08:31:11;;;;;;;20.67;12.60;;;10.30;99.90;;;;;;5029401;28;20029;-59
2020/12/16 08:33:38;;;;;;;17.95;12.02;;;10.00;99.90;;;;;;5030556;28;20079;-62
2020/12/16 08:36:15;;;;;;;17.33;12.75;;;10.10;99.90;;;;;;5032141;28;20104;-67
2020/12/16 08:38:47;;;;;;;17.55;11.88;;;10.00;99.90;;;;;;5034317;28;20513;-62
2020/12/16 08:41:14;;;;;;;17.02;12.43;;;9.90;99.90;;;;;;5034168;28;20022;-61
2020/12/16 08:43:46;;;;;;;18.90;13.20;;;9.90;99.90;;;;;;5031016;28;20103;-59
2020/12/16 08:46:13;;;;;;;18.02;12.30;;;9.90;99.90;;;;;;5029432;28;20048;-62
2020/12/16 08:49:00;;;;;;;17.00;12.02;;;9.70;99.90;;;;;;5022694;28;20033;-60
2020/12/16 08:51:34;;;;;;;21.73;13.32;;;9.70;99.90;;;;;;5025232;28;20479;-60
2020/12/16 08:54:08;;;;;;;17.05;12.15;;;9.50;99.90;;;;;;5026842;28;20517;-61
2020/12/16 08:56:41;;;;;;;18.80;12.88;;;9.60;99.90;;;;;;5021901;28;20030;-61
2020/12/16 08:59:23;;;;;;;17.83;13.25;;;9.70;99.90;;;;;;5014557;28;20038;-67
2020/12/16 09:01:54;;;;;;;17.20;12.48;;;9.70;99.90;;;;;;5027031;28;20060;-61
2020/12/16 09:04:34;;;;;;;18.52;13.32;;;9.70;99.90;;;;;;5041900;28;20056;-60
2020/12/16 09:07:12;;;;;;;20.38;12.82;;;9.70;99.90;;;;;;5018719;28;20040;-60
2020/12/16 09:09:45;;;;;;;15.25;11.57;;;9.60;99.90;;;;;;5024316;28;20057;-61
2020/12/16 09:12:17;;;;;;;17.20;12.90;;;9.50;99.90;;;;;;5024227;28;20021;-61
2020/12/16 09:14:49;;;;;;;;;;;9.50;99.90;;;;;;5050739;28;20040;-59
2020/12/16 09:17:15;;;;;;;14.55;10.77;;;9.60;99.90;;;;;;5050205;28;19904;-62
2020/12/16 09:19:42;;;;;;;16.90;12.32;;;9.50;99.90;;;;;;5051828;28;20053;-61
2020/12/16 09:22:08;;;;;;;21.88;12.98;;;9.50;99.90;;;;;;5035157;28;20048;-67
2020/12/16 09:24:33;;;;;;;18.83;13.43;;;9.50;99.90;;;;;;5035435;28;20033;-62
2020/12/16 09:27:06;;;;;;;20.95;13.20;;;9.20;99.90;;;;;;5051829;28;20459;-60
2020/12/16 09:29:31;;;;;;;16.67;9.75;;;9.20;99.90;;;;;;5046282;28;20521;-61
2020/12/16 09:32:10;;;;;;;16.25;10.15;;;10.10;99.90;;;;;;5001070;28;20068;-64
2020/12/16 09:34:50;;;;;;;14.30;11.27;;;12.50;99.90;;;;;;5017284;28;20033;-64
2020/12/16 09:37:21;;;;;;;17.77;11.15;;;12.50;99.90;;;;;;5030809;28;20366;-65
2020/12/16 09:39:48;;;;;;;13.52;10.20;;;13.50;99.90;;;;;;5015226;28;20451;-61
2020/12/16 09:42:16;;;;;;;15.75;11.23;;;12.60;99.90;;;;;;5031049;28;20422;-63
2020/12/16 09:44:42;;;;;;;16.30;11.38;;;10.70;99.90;;;;;;5032096;28;20048;-62
2020/12/16 09:47:20;;;;;;;15.80;11.32;;;10.00;99.90;;;;;;5014973;28;20156;-66
2020/12/16 09:50:00;;;;;;;18.23;12.57;;;9.80;99.90;;;;;;5031711;28;20441;-61
2020/12/16 09:52:31;;;;;;;17.40;12.85;;;9.50;99.90;;;;;;5020234;28;20038;-60
2020/12/16 09:54:58;;;;;;;17.88;12.30;;;9.50;99.90;;;;;;5014217;28;20026;-61
2020/12/16 09:57:24;;;;;;;18.05;13.35;;;9.60;99.90;;;;;;5011989;28;20480;-61
2020/12/16 09:59:51;;;;;;;18.50;12.82;;;9.60;99.90;;;;;;5013026;28;20064;-64
2020/12/16 10:02:17;;;;;;;16.42;12.05;;;9.60;99.90;;;;;;5021595;28;20386;-62
2020/12/16 10:04:44;;;;;;;17.60;12.00;;;9.40;99.90;;;;;;5033800;28;20029;-61
2020/12/16 10:07:10;;;;;;;20.50;13.32;;;9.30;99.90;;;;;;5032178;28;20055;-66
2020/12/16 10:09:38;;;;;;;21.02;13.20;;;9.30;99.90;;;;;;5033625;28;20033;-59
2020/12/16 10:12:05;;;;;;;19.42;13.93;;;9.30;99.90;;;;;;5033610;28;20056;-61
2020/12/16 10:14:31;;;;;;;17.98;12.65;;;9.50;99.90;;;;;;5033081;28;20018;-60
2020/12/16 10:16:57;;;;;;;18.83;13.13;;;9.50;99.90;;;;;;5033349;28;20532;-60
2020/12/16 10:19:23;;;;;;;18.38;12.65;;;9.60;99.90;;;;;;5032826;28;20056;-59
2020/12/16 10:21:50;;;;;;;15.73;11.93;;;9.60;99.90;;;;;;5033483;28;20443;-61
2020/12/16 10:24:17;;;;;;;19.08;14.00;;;9.70;99.90;;;;;;5031510;28;20029;-60
2020/12/16 10:26:49;;;;;;;19.13;13.52;;;9.70;99.90;;;;;;5033437;28;20048;-61
2020/12/16 10:29:19;;;;;;;19.67;13.73;;;9.60;99.90;;;;;;5031721;28;20112;-62
2020/12/16 10:31:51;;;;;;;22.85;14.13;;;9.60;99.90;;;;;;5033690;28;20055;-62
2020/12/16 10:34:17;;;;;;;;;;;9.50;99.90;;;;;;5031676;28;20033;-61
2020/12/16 10:36:48;;;;;;;20.25;14.82;;;9.70;99.90;;;;;;5033695;28;19911;-60
2020/12/16 10:39:13;;;;;;;17.25;13.05;;;9.70;99.90;;;;;;5035456;28;20059;-60
2020/12/16 10:41:39;;;;;;;16.85;12.75;;;9.90;99.90;;;;;;5035232;28;20409;-62
2020/12/16 10:44:04;;;;;;;16.55;12.45;;;10.20;99.90;;;;;;5033794;28;20074;-60
2020/12/16 10:46:30;;;;;;;17.35;12.98;;;10.20;99.90;;;;;;5053745;28;20262;-61
2020/12/16 10:48:56;;;;;;;18.60;13.27;;;10.60;99.90;;;;;;5036145;28;20115;-60
2020/12/16 10:51:27;;;;;;;15.00;11.98;;;10.40;99.90;;;;;;5033186;28;20036;-65
2020/12/16 10:53:53;;;;;;;22.63;12.20;;;10.70;99.90;;;;;;5053140;28;20025;-59
2020/12/16 10:56:19;;;;;;;17.92;13.15;;;10.70;99.90;;;;;;5052067;28;20052;-60
2020/12/16 10:58:45;;;;;;;17.42;12.25;;;10.80;99.90;;;;;;5051132;28;20072;-62
2020/12/16 11:01:10;;;;;;;16.75;13.32;;;10.50;99.90;;;;;;5052662;28;20053;-59
2020/12/16 11:03:36;;;;;;;16.35;12.27;;;10.40;99.90;;;;;;5052440;28;20060;-62
2020/12/16 11:06:05;;;;;;;18.58;13.05;;;10.70;99.90;;;;;;5034720;28;20124;-61
2020/12/16 11:08:31;;;;;;;16.77;12.73;;;10.60;99.90;;;;;;5051998;28;20095;-60
2020/12/16 11:10:57;;;;;;;22.15;13.30;;;11.00;99.90;;;;;;5052545;28;20112;-60
2020/12/16 11:13:22;;;;;;;18.02;12.95;;;10.80;99.90;;;;;;5042104;28;20037;-62
2020/12/16 11:15:48;;;;;;;18.17;12.88;;;11.10;99.90;;;;;;5033090;28;20021;-61
2020/12/16 11:18:14;;;;;;;17.10;13.10;;;11.10;99.90;;;;;;5031992;28;20044;-68
2020/12/16 11:20:40;;;;;;;19.00;13.85;;;11.70;99.90;;;;;;5032583;28;20485;-60
2020/12/16 11:23:05;;;;;;;16.05;12.70;;;12.00;99.90;;;;;;5046644;28;20025;-61
2020/12/16 11:25:31;;;;;;;17.88;12.55;;;12.00;99.90;;;;;;5018544;28;20507;-59
2020/12/16 11:27:58;;;;;;;19.33;13.73;;;11.60;99.90;;;;;;5052799;28;20056;-65
2020/12/16 11:30:24;;;;;;;18.25;13.05;;;11.40;99.90;;;;;;5050408;28;20516;-63
2020/12/16 11:32:50;;;;;;;17.17;12.90;;;11.50;99.90;;;;;;5018235;28;20033;-60
2020/12/16 11:35:15;;;;;;;23.98;12.45;;;11.90;99.90;;;;;;5034759;28;20078;-66
2020/12/16 11:37:44;;;;;;;17.52;11.55;;;12.70;99.90;;;;;;5051808;28;20331;-60
2020/12/16 11:40:10;;;;;;;15.35;11.68;;;12.80;99.90;;;;;;5051513;28;20082;-61
2020/12/16 11:42:36;;;;;;;16.60;11.90;;;13.50;99.90;;;;;;5052404;28;20035;-60
2020/12/16 11:45:04;;;;;;;18.83;12.38;;;13.90;99.90;;;;;;5033789;28;20021;-61
2020/12/16 11:47:30;;;;;;;13.38;11.35;;;14.30;99.90;;;;;;5050083;28;20087;-61
2020/12/16 11:49:55;;;;;;;14.68;10.95;;;14.50;99.90;;;;;;5033144;28;20049;-59
2020/12/16 11:52:21;;;;;;;14.63;11.00;;;15.70;99.90;;;;;;5033266;28;20032;-65
2020/12/16 11:54:47;;;;;;;13.73;10.25;;;16.50;99.60;;;;;;5052063;28;20243;-60
2020/12/16 11:57:12;;;;;;;12.70;10.10;;;15.70;99.00;;;;;;5052167;28;20017;-62
2020/12/16 11:59:39;;;;;;;16.38;10.85;;;15.80;99.40;;;;;;5034206;28;20130;-66
2020/12/16 12:02:06;;;;;;;14.43;10.88;;;17.00;97.90;;;;;;5052535;28;20474;-62
2020/12/16 12:04:32;;;;;;;12.82;9.77;;;17.60;96.30;;;;;;5051869;28;20033;-62
2020/12/16 12:06:58;;;;;;;12.82;10.48;;;16.20;97.50;;;;;;5034162;28;20389;-64
2020/12/16 12:09:24;;;;;;;12.30;9.32;;;16.40;98.70;;;;;;5032764;28;20120;-60
2020/12/16 12:11:51;;;;;;;17.00;11.10;;;16.00;99.90;;;;;;5037040;28;20031;-62
2020/12/16 12:14:18;;;;;;;17.90;11.77;;;16.70;99.90;;;;;;5055091;28;20032;-71
2020/12/16 12:16:46;;;;;;;13.18;9.65;;;17.40;96.80;;;;;;5055745;28;20021;-62
2020/12/16 12:19:12;;;;;;;14.18;9.52;;;18.40;96.50;;;;;;5055217;28;20366;-59
2020/12/16 12:21:38;;;;;;;12.30;9.88;;;18.10;94.70;;;;;;5037008;28;20032;-62
2020/12/16 12:24:03;;;;;;;13.02;10.15;;;17.00;96.30;;;;;;5055273;28;20025;-59
2020/12/16 12:26:29;;;;;;;12.45;10.10;;;16.10;97.50;;;;;;5054244;28;20044;-63
2020/12/16 12:28:55;;;;;;;14.70;10.77;;;16.50;97.40;;;;;;5055956;28;20024;-61
2020/12/16 12:31:21;;;;;;;12.23;10.27;;;16.60;97.50;;;;;;5037097;28;20124;-61
2020/12/16 12:33:46;;;;;;;15.05;10.10;;;15.70;98.20;;;;;;5054563;28;20402;-59
2020/12/16 12:36:12;;;;;;;12.75;9.68;;;15.50;99.10;;;;;;5054869;28;20517;-59
2020/12/16 12:38:38;;;;;;;12.10;10.85;;;15.00;99.00;;;;;;5036707;28;20443;-61
2020/12/16 12:41:04;;;;;;;13.50;10.98;;;14.60;99.90;;;;;;5055033;28;20111;-60